createdAt,value
2022-12-19T00:00:05.161Z,-0.86
2022-12-19T00:01:05.181Z,-0.86
2022-12-19T00:02:05.233Z,-0.89
2022-12-19T00:03:05.298Z,-0.86
2022-12-19T00:04:08.346Z,-0.85
2022-12-19T00:05:05.089Z,-0.85
2022-12-19T00:06:05.090Z,-0.85
2022-12-19T00:07:05.080Z,-0.85
2022-12-19T00:08:13.955Z,-0.85
2022-12-19T00:09:06.042Z,-0.86
2022-12-19T00:10:05.061Z,-0.86
2022-12-19T00:11:05.024Z,-0.83
2022-12-19T00:12:05.030Z,-0.85
2022-12-19T00:13:04.994Z,-0.86
2022-12-19T00:14:05.011Z,-0.85
2022-12-19T00:15:04.982Z,-0.89
2022-12-19T00:16:05.053Z,-0.92
2022-12-19T00:17:05.071Z,-0.92
2022-12-19T00:18:04.952Z,-0.95
2022-12-19T00:19:04.942Z,-0.95
2022-12-19T00:20:04.935Z,-0.94
2022-12-19T00:21:05.356Z,-0.95
2022-12-19T00:22:09.637Z,-0.97
2022-12-19T00:23:05.901Z,-0.97
2022-12-19T00:24:09.827Z,-0.95
2022-12-19T00:25:05.894Z,-0.94
2022-12-19T00:26:04.879Z,-0.95
2022-12-19T00:27:04.864Z,-0.94
2022-12-19T00:28:04.954Z,-0.92
2022-12-19T00:29:07.618Z,-0.91
2022-12-19T00:30:05.845Z,-0.89
2022-12-19T00:31:04.891Z,-0.86
2022-12-19T00:32:04.894Z,-0.86
2022-12-19T00:33:04.797Z,-0.85
2022-12-19T00:34:04.906Z,-0.83
2022-12-19T00:35:04.797Z,-0.85
2022-12-19T00:36:04.815Z,-0.85
2022-12-19T00:37:04.756Z,-0.85
2022-12-19T00:38:04.754Z,-0.83
2022-12-19T00:39:07.764Z,-0.85
2022-12-19T00:40:04.949Z,-0.85
2022-12-19T00:41:04.715Z,-0.86
2022-12-19T00:42:04.717Z,-0.86
2022-12-19T00:43:04.698Z,-0.85
2022-12-19T00:44:04.718Z,-0.79
2022-12-19T00:45:04.685Z,-0.80
2022-12-19T00:46:04.706Z,-0.83
2022-12-19T00:47:04.679Z,-0.80
2022-12-19T00:48:04.657Z,-0.82
2022-12-19T00:49:04.638Z,-0.82
2022-12-19T00:50:04.706Z,-0.83
2022-12-19T00:51:04.624Z,-0.83
2022-12-19T00:52:04.616Z,-0.83
2022-12-19T00:53:04.603Z,-0.83
2022-12-19T00:54:05.482Z,-0.80
2022-12-19T00:55:07.629Z,-0.80
2022-12-19T00:56:05.590Z,-0.79
2022-12-19T00:57:04.569Z,-0.78
2022-12-19T00:58:04.560Z,-0.79
2022-12-19T00:59:04.541Z,-0.78
2022-12-19T01:00:04.538Z,-0.78
2022-12-19T01:01:04.557Z,-0.76
2022-12-19T01:02:04.662Z,-0.75
2022-12-19T01:03:05.665Z,-0.75
2022-12-19T01:04:28.063Z,-0.76
2022-12-19T01:05:05.470Z,-0.72
2022-12-19T01:06:04.485Z,-0.75
2022-12-19T01:07:04.545Z,-0.72
2022-12-19T01:08:04.504Z,-0.72
2022-12-19T01:09:04.457Z,-0.70
2022-12-19T01:10:04.440Z,-0.69
2022-12-19T01:11:04.435Z,-0.69
2022-12-19T01:12:04.414Z,-0.67
2022-12-19T01:13:04.394Z,-0.64
2022-12-19T01:14:04.409Z,-0.62
2022-12-19T01:15:05.372Z,-0.62
2022-12-19T01:16:04.678Z,-0.61
2022-12-19T01:17:04.358Z,-0.61
2022-12-19T01:18:04.370Z,-0.58
2022-12-19T01:19:04.342Z,-0.58
2022-12-19T01:20:04.392Z,-0.57
2022-12-19T01:21:04.322Z,-0.55
2022-12-19T01:22:04.312Z,-0.55
2022-12-19T01:23:04.305Z,-0.54
2022-12-19T01:24:04.315Z,-0.54
2022-12-19T01:25:04.283Z,-0.51
2022-12-19T01:26:04.284Z,-0.52
2022-12-19T01:27:04.273Z,-0.51
2022-12-19T01:28:04.272Z,-0.49
2022-12-19T01:29:05.054Z,-0.47
2022-12-19T01:30:04.233Z,-0.47
2022-12-19T01:31:04.232Z,-0.46
2022-12-19T01:32:04.259Z,-0.46
2022-12-19T01:33:04.205Z,-0.46
2022-12-19T01:34:04.204Z,-0.42
2022-12-19T01:35:04.195Z,-0.42
2022-12-19T01:36:04.165Z,-0.39
2022-12-19T01:37:04.196Z,-0.40
2022-12-19T01:38:08.628Z,-0.39
2022-12-19T01:39:04.142Z,-0.37
2022-12-19T01:40:04.141Z,-0.39
2022-12-19T01:41:04.125Z,-0.37
2022-12-19T01:42:04.125Z,-0.37
2022-12-19T01:43:04.095Z,-0.36
2022-12-19T01:44:04.118Z,-0.36
2022-12-19T01:45:04.126Z,-0.36
2022-12-19T01:46:04.153Z,-0.34
2022-12-19T01:47:04.066Z,-0.36
2022-12-19T01:48:04.058Z,-0.36
2022-12-19T01:49:04.038Z,-0.34
2022-12-19T01:50:04.091Z,-0.34
2022-12-19T01:51:04.052Z,-0.36
2022-12-19T01:52:04.022Z,-0.37
2022-12-19T01:53:03.997Z,-0.37
2022-12-19T01:54:04.037Z,-0.39
2022-12-19T01:55:04.017Z,-0.39
2022-12-19T01:56:07.674Z,-0.37
2022-12-19T01:57:03.934Z,-0.39
2022-12-19T01:58:03.967Z,-0.39
2022-12-19T01:59:06.311Z,-0.39
2022-12-19T02:00:03.918Z,-0.39
2022-12-19T02:01:03.949Z,-0.40
2022-12-19T02:02:04.172Z,-0.40
2022-12-19T02:03:03.930Z,-0.40
2022-12-19T02:04:03.886Z,-0.39
2022-12-19T02:05:03.858Z,-0.36
2022-12-19T02:06:03.856Z,-0.34
2022-12-19T02:07:15.451Z,-0.33
2022-12-19T02:08:04.830Z,-0.31
2022-12-19T02:09:03.810Z,-0.29
2022-12-19T02:10:03.810Z,-0.29
2022-12-19T02:11:03.793Z,-0.28
2022-12-19T02:12:03.810Z,-0.25
2022-12-19T02:13:03.783Z,-0.25
2022-12-19T02:14:03.771Z,-0.25
2022-12-19T02:15:03.802Z,-0.21
2022-12-19T02:16:03.764Z,-0.22
2022-12-19T02:17:03.741Z,-0.21
2022-12-19T02:18:04.018Z,-0.19
2022-12-19T02:19:03.714Z,-0.19
2022-12-19T02:20:03.704Z,-0.19
2022-12-19T02:21:03.717Z,-0.21
2022-12-19T02:22:03.695Z,-0.16
2022-12-19T02:23:03.676Z,-0.14
2022-12-19T02:24:03.692Z,-0.11
2022-12-19T02:25:03.653Z,-0.10
2022-12-19T02:26:03.671Z,-0.05
2022-12-19T02:27:03.661Z,-0.07
2022-12-19T02:28:03.645Z,-0.05
2022-12-19T02:29:03.629Z,-0.04
2022-12-19T02:30:03.611Z,-0.03
2022-12-19T02:31:04.026Z,-0.03
2022-12-19T02:32:04.654Z,-0.01
2022-12-19T02:33:03.578Z,-0.01
2022-12-19T02:34:03.684Z,0.00
2022-12-19T02:35:03.575Z,0.02
2022-12-19T02:36:03.653Z,0.04
2022-12-19T02:37:03.536Z,0.04
2022-12-19T02:38:05.719Z,0.07
2022-12-19T02:39:03.593Z,0.10
2022-12-19T02:40:03.527Z,0.11
2022-12-19T02:41:03.519Z,0.13
2022-12-19T02:42:03.514Z,0.13
2022-12-19T02:43:03.482Z,0.15
2022-12-19T02:44:03.488Z,0.15
2022-12-19T02:45:03.513Z,0.18
2022-12-19T02:46:03.540Z,0.17
2022-12-19T02:47:03.459Z,0.18
2022-12-19T02:48:08.630Z,0.18
2022-12-19T02:49:04.433Z,0.21
2022-12-19T02:50:03.424Z,0.21
2022-12-19T02:51:03.408Z,0.21
2022-12-19T02:52:03.415Z,0.24
2022-12-19T02:53:03.392Z,0.26
2022-12-19T02:54:03.414Z,0.26
2022-12-19T02:55:03.377Z,0.28
2022-12-19T02:56:03.386Z,0.28
2022-12-19T02:57:04.337Z,0.29
2022-12-19T02:58:03.378Z,0.32
2022-12-19T02:59:03.342Z,0.32
2022-12-19T03:00:03.425Z,0.33
2022-12-19T03:01:03.384Z,0.35
2022-12-19T03:02:03.463Z,0.33
2022-12-19T03:03:03.500Z,0.32
2022-12-19T03:04:03.283Z,0.35
2022-12-19T03:05:03.283Z,0.35
2022-12-19T03:06:03.265Z,0.36
2022-12-19T03:07:03.245Z,0.38
2022-12-19T03:08:03.247Z,0.39
2022-12-19T03:09:03.243Z,0.39
2022-12-19T03:10:03.232Z,0.42
2022-12-19T03:11:03.208Z,0.46
2022-12-19T03:12:03.210Z,0.49
2022-12-19T03:13:03.189Z,0.53
2022-12-19T03:14:03.228Z,0.57
2022-12-19T03:15:03.180Z,0.61
2022-12-19T03:16:03.160Z,0.62
2022-12-19T03:17:03.208Z,0.62
2022-12-19T03:18:03.158Z,0.62
2022-12-19T03:19:03.133Z,0.66
2022-12-19T03:20:03.131Z,0.70
2022-12-19T03:21:03.112Z,0.73
2022-12-19T03:22:03.113Z,0.76
2022-12-19T03:23:03.155Z,0.78
2022-12-19T03:24:03.095Z,0.80
2022-12-19T03:25:03.065Z,0.79
2022-12-19T03:26:03.074Z,0.78
2022-12-19T03:27:03.261Z,0.75
2022-12-19T03:28:03.368Z,0.73
2022-12-19T03:29:03.034Z,0.75
2022-12-19T03:30:03.040Z,0.76
2022-12-19T03:31:03.078Z,0.76
2022-12-19T03:32:03.022Z,0.76
2022-12-19T03:33:02.995Z,0.76
2022-12-19T03:34:03.005Z,0.76
2022-12-19T03:35:03.008Z,0.75
2022-12-19T03:36:02.963Z,0.76
2022-12-19T03:37:02.952Z,0.76
2022-12-19T03:38:03.078Z,0.72
2022-12-19T03:39:02.946Z,0.68
2022-12-19T03:40:02.922Z,0.62
2022-12-19T03:41:02.943Z,0.57
2022-12-19T03:42:02.912Z,0.53
2022-12-19T03:43:02.891Z,0.50
2022-12-19T03:44:02.883Z,0.49
2022-12-19T03:45:02.871Z,0.47
2022-12-19T03:46:02.914Z,0.44
2022-12-19T03:47:02.853Z,0.46
2022-12-19T03:48:02.843Z,0.46
2022-12-19T03:49:02.822Z,0.42
2022-12-19T03:50:03.614Z,0.41
2022-12-19T03:51:02.816Z,0.41
2022-12-19T03:52:02.803Z,0.33
2022-12-19T03:53:02.811Z,0.36
2022-12-19T03:54:02.783Z,0.33
2022-12-19T03:55:02.784Z,0.32
2022-12-19T03:56:02.771Z,0.33
2022-12-19T03:57:02.749Z,0.33
2022-12-19T03:58:02.746Z,0.35
2022-12-19T03:59:02.775Z,0.35
2022-12-19T04:00:02.710Z,0.35
2022-12-19T04:01:02.766Z,0.36
2022-12-19T04:02:02.801Z,0.38
2022-12-19T04:03:02.741Z,0.36
2022-12-19T04:04:02.677Z,0.35
2022-12-19T04:05:02.661Z,0.36
2022-12-19T04:06:02.651Z,0.38
2022-12-19T04:07:02.657Z,0.38
2022-12-19T04:08:02.675Z,0.39
2022-12-19T04:09:02.631Z,0.39
2022-12-19T04:10:02.616Z,0.38
2022-12-19T04:11:02.608Z,0.39
2022-12-19T04:12:02.590Z,0.38
2022-12-19T04:13:02.591Z,0.39
2022-12-19T04:14:02.564Z,0.41
2022-12-19T04:15:02.564Z,0.42
2022-12-19T04:16:02.607Z,0.44
2022-12-19T04:17:02.552Z,0.44
2022-12-19T04:18:02.523Z,0.44
2022-12-19T04:19:02.524Z,0.46
2022-12-19T04:20:02.507Z,0.46
2022-12-19T04:21:02.522Z,0.44
2022-12-19T04:22:02.494Z,0.46
2022-12-19T04:23:02.507Z,0.47
2022-12-19T04:24:02.465Z,0.49
2022-12-19T04:25:02.474Z,0.49
2022-12-19T04:26:02.887Z,0.47
2022-12-19T04:27:02.446Z,0.49
2022-12-19T04:28:02.439Z,0.49
2022-12-19T04:29:02.435Z,0.49
2022-12-19T04:30:02.479Z,0.49
2022-12-19T04:31:02.463Z,0.49
2022-12-19T04:32:02.376Z,0.50
2022-12-19T04:33:02.424Z,0.49
2022-12-19T04:34:02.388Z,0.51
2022-12-19T04:35:02.361Z,0.50
2022-12-19T04:36:02.363Z,0.51
2022-12-19T04:37:02.355Z,0.50
2022-12-19T04:38:02.314Z,0.53
2022-12-19T04:39:02.319Z,0.51
2022-12-19T04:40:02.351Z,0.53
2022-12-19T04:41:02.296Z,0.55
2022-12-19T04:42:02.287Z,0.51
2022-12-19T04:43:02.280Z,0.51
2022-12-19T04:44:02.256Z,0.55
2022-12-19T04:45:02.252Z,0.58
2022-12-19T04:46:02.238Z,0.60
2022-12-19T04:47:03.410Z,0.62
2022-12-19T04:48:02.210Z,0.61
2022-12-19T04:49:02.232Z,0.66
2022-12-19T04:50:02.186Z,0.68
2022-12-19T04:51:02.197Z,0.68
2022-12-19T04:52:02.188Z,0.69
2022-12-19T04:53:02.180Z,0.70
2022-12-19T04:54:02.170Z,0.70
2022-12-19T04:55:02.195Z,0.68
2022-12-19T04:56:02.131Z,0.72
2022-12-19T04:57:02.129Z,0.70
2022-12-19T04:58:02.114Z,0.70
2022-12-19T04:59:02.113Z,0.70
2022-12-19T05:00:02.089Z,0.72
2022-12-19T05:01:02.093Z,0.72
2022-12-19T05:02:02.161Z,0.72
2022-12-19T05:03:02.208Z,0.70
2022-12-19T05:04:04.665Z,0.72
2022-12-19T05:05:02.040Z,0.72
2022-12-19T05:06:02.040Z,0.72
2022-12-19T05:07:02.026Z,0.75
2022-12-19T05:08:02.008Z,0.75
2022-12-19T05:09:02.010Z,0.75
2022-12-19T05:10:01.989Z,0.75
2022-12-19T05:11:01.997Z,0.73
2022-12-19T05:12:01.972Z,0.75
2022-12-19T05:13:01.961Z,0.75
2022-12-19T05:14:01.938Z,0.75
2022-12-19T05:15:01.952Z,0.76
2022-12-19T05:16:01.981Z,0.78
2022-12-19T05:17:01.929Z,0.79
2022-12-19T05:18:01.911Z,0.79
2022-12-19T05:19:01.898Z,0.80
2022-12-19T05:20:01.881Z,0.83
2022-12-19T05:21:01.883Z,0.83
2022-12-19T05:22:01.862Z,0.84
2022-12-19T05:23:05.030Z,0.84
2022-12-19T05:24:02.149Z,0.86
2022-12-19T05:25:01.855Z,0.86
2022-12-19T05:26:01.812Z,0.86
2022-12-19T05:27:01.871Z,0.86
2022-12-19T05:28:01.791Z,0.87
2022-12-19T05:29:01.802Z,0.86
2022-12-19T05:30:01.784Z,0.87
2022-12-19T05:31:01.829Z,0.86
2022-12-19T05:32:01.768Z,0.84
2022-12-19T05:33:01.763Z,0.86
2022-12-19T05:34:01.731Z,0.87
2022-12-19T05:35:01.737Z,0.87
2022-12-19T05:36:01.721Z,0.88
2022-12-19T05:37:01.709Z,0.88
2022-12-19T05:38:01.694Z,0.88
2022-12-19T05:39:01.713Z,0.88
2022-12-19T05:40:01.680Z,0.90
2022-12-19T05:41:01.662Z,0.93
2022-12-19T05:42:01.658Z,0.94
2022-12-19T05:43:01.642Z,0.96
2022-12-19T05:44:01.626Z,0.94
2022-12-19T05:45:01.673Z,0.96
2022-12-19T05:46:01.620Z,0.94
2022-12-19T05:47:01.694Z,0.96
2022-12-19T05:48:01.776Z,0.97
2022-12-19T05:49:01.584Z,0.97
2022-12-19T05:50:01.564Z,0.98
2022-12-19T05:51:01.572Z,0.98
2022-12-19T05:52:01.543Z,0.98
2022-12-19T05:53:01.563Z,1.02
2022-12-19T05:54:01.523Z,1.00
2022-12-19T05:55:01.521Z,1.02
2022-12-19T05:56:01.495Z,1.00
2022-12-19T05:57:01.524Z,1.02
2022-12-19T05:58:01.478Z,1.02
2022-12-19T05:59:01.484Z,1.00
2022-12-19T06:00:01.464Z,1.02
2022-12-19T06:01:02.267Z,1.05
2022-12-19T06:02:01.668Z,1.06
2022-12-19T06:03:02.379Z,1.06
2022-12-19T06:04:01.405Z,1.06
2022-12-19T06:05:01.415Z,1.06
2022-12-19T06:06:01.405Z,1.08
2022-12-19T06:07:01.389Z,1.08
2022-12-19T06:08:01.376Z,1.09
2022-12-19T06:09:01.374Z,1.08
2022-12-19T06:10:01.364Z,1.08
2022-12-19T06:11:01.343Z,1.09
2022-12-19T06:12:01.326Z,1.09
2022-12-19T06:13:02.137Z,1.08
2022-12-19T06:14:01.340Z,1.09
2022-12-19T06:15:01.313Z,1.08
2022-12-19T06:16:02.194Z,1.09
2022-12-19T06:17:01.286Z,1.06
2022-12-19T06:18:01.303Z,1.06
2022-12-19T06:19:01.475Z,1.08
2022-12-19T06:20:01.247Z,1.05
2022-12-19T06:21:01.280Z,1.00
2022-12-19T06:22:01.224Z,1.02
2022-12-19T06:23:02.024Z,1.00
2022-12-19T06:24:02.005Z,0.97
2022-12-19T06:25:01.207Z,0.98
2022-12-19T06:26:01.184Z,0.93
2022-12-19T06:27:01.178Z,0.91
2022-12-19T06:28:01.156Z,0.90
2022-12-19T06:29:01.960Z,0.87
2022-12-19T06:30:01.273Z,0.84
2022-12-19T06:31:01.141Z,0.83
2022-12-19T06:32:01.215Z,0.80
2022-12-19T06:33:01.907Z,0.78
2022-12-19T06:34:01.208Z,0.78
2022-12-19T06:35:05.054Z,0.76
2022-12-19T06:36:01.067Z,0.76
2022-12-19T06:37:05.179Z,0.70
2022-12-19T06:38:02.866Z,0.70
2022-12-19T06:39:01.305Z,0.66
2022-12-19T06:40:01.036Z,0.66
2022-12-19T06:41:01.036Z,0.65
2022-12-19T06:42:01.355Z,0.62
2022-12-19T06:43:01.815Z,0.65
2022-12-19T06:44:01.000Z,0.68
2022-12-19T06:45:00.978Z,0.68
2022-12-19T06:46:01.314Z,0.70
2022-12-19T06:47:00.981Z,0.70
2022-12-19T06:48:00.938Z,0.72
2022-12-19T06:49:00.961Z,0.75
2022-12-19T06:50:00.946Z,0.79
2022-12-19T06:51:00.918Z,0.80
2022-12-19T06:52:05.088Z,0.80
2022-12-19T06:53:01.911Z,0.83
2022-12-19T06:54:00.930Z,0.87
2022-12-19T06:55:00.891Z,0.87
2022-12-19T06:56:01.123Z,0.86
2022-12-19T06:57:01.039Z,0.88
2022-12-19T06:58:00.967Z,0.88
2022-12-19T06:59:00.851Z,0.88
2022-12-19T07:00:00.820Z,0.87
2022-12-19T07:01:00.876Z,0.88
2022-12-19T07:02:00.968Z,0.88
2022-12-19T07:03:00.855Z,0.87
2022-12-19T07:04:00.809Z,0.86
2022-12-19T07:05:00.804Z,0.88
2022-12-19T07:06:00.776Z,0.87
2022-12-19T07:07:00.820Z,0.86
2022-12-19T07:08:00.740Z,0.84
2022-12-19T07:09:00.839Z,0.87
2022-12-19T07:10:00.890Z,0.87
2022-12-19T07:11:00.762Z,0.86
2022-12-19T07:12:00.733Z,0.86
2022-12-19T07:13:00.730Z,0.86
2022-12-19T07:14:00.682Z,0.86
2022-12-19T07:15:01.504Z,0.83
2022-12-19T07:16:00.719Z,0.84
2022-12-19T07:17:01.618Z,0.86
2022-12-19T07:18:00.732Z,0.86
2022-12-19T07:19:01.411Z,0.84
2022-12-19T07:20:00.632Z,0.87
2022-12-19T07:21:00.615Z,0.87
2022-12-19T07:22:00.591Z,0.88
2022-12-19T07:23:00.582Z,0.88
2022-12-19T07:24:01.361Z,0.90
2022-12-19T07:25:00.576Z,0.90
2022-12-19T07:26:00.541Z,0.88
2022-12-19T07:27:00.575Z,0.93
2022-12-19T07:28:00.732Z,0.91
2022-12-19T07:29:00.526Z,0.91
2022-12-19T07:30:00.523Z,0.93
2022-12-19T07:31:00.574Z,0.94
2022-12-19T07:32:00.548Z,0.93
2022-12-19T07:33:00.563Z,0.91
2022-12-19T07:34:00.485Z,0.91
2022-12-19T07:35:00.494Z,0.91
2022-12-19T07:36:00.451Z,0.91
2022-12-19T07:37:00.439Z,0.90
2022-12-19T07:38:00.872Z,0.91
2022-12-19T07:39:00.424Z,0.91
2022-12-19T07:40:00.401Z,0.90
2022-12-19T07:41:00.439Z,0.91
2022-12-19T07:42:00.393Z,0.91
2022-12-19T07:43:00.385Z,0.91
2022-12-19T07:44:00.353Z,0.91
2022-12-19T07:45:00.370Z,0.91
2022-12-19T07:46:01.251Z,0.90
2022-12-19T07:47:00.334Z,0.91
2022-12-19T07:48:00.307Z,0.88
2022-12-19T07:49:00.305Z,0.90
2022-12-19T07:50:00.304Z,0.90
2022-12-19T07:51:01.075Z,0.91
2022-12-19T07:52:00.277Z,0.91
2022-12-19T07:53:00.267Z,0.94
2022-12-19T07:54:00.254Z,0.94
2022-12-19T07:55:00.289Z,0.94
2022-12-19T07:56:02.188Z,0.93
2022-12-19T07:57:00.226Z,0.93
2022-12-19T07:58:00.220Z,0.94
2022-12-19T07:59:00.217Z,0.91
2022-12-19T08:00:00.199Z,0.91
2022-12-19T08:01:00.320Z,0.94
2022-12-19T08:02:00.356Z,0.94
2022-12-19T08:03:00.279Z,0.97
2022-12-19T08:04:00.138Z,0.97
2022-12-19T08:05:00.167Z,0.98
2022-12-19T08:06:00.155Z,0.97
2022-12-19T08:07:00.107Z,0.98
2022-12-19T08:08:00.123Z,1.00
2022-12-19T08:09:00.132Z,1.04
2022-12-19T08:10:00.107Z,1.06
2022-12-19T08:11:00.080Z,1.05
2022-12-19T08:12:00.102Z,1.06
2022-12-19T08:13:00.458Z,1.06
2022-12-19T08:14:00.040Z,1.08
2022-12-19T08:15:00.046Z,1.08
2022-12-19T08:16:00.823Z,1.09
2022-12-19T08:18:01.016Z,1.14
2022-12-19T08:18:59.992Z,1.14
2022-12-19T08:19:59.991Z,1.15
2022-12-19T08:20:59.965Z,1.15
2022-12-19T08:21:59.977Z,1.16
2022-12-19T08:23:00.011Z,1.14
2022-12-19T08:24:00.040Z,1.16
2022-12-19T08:24:59.922Z,1.18
2022-12-19T08:25:59.921Z,1.16
2022-12-19T08:26:59.894Z,1.16
2022-12-19T08:27:59.895Z,1.16
2022-12-19T08:28:59.873Z,1.15
2022-12-19T08:29:59.872Z,1.16
2022-12-19T08:30:59.965Z,1.18
2022-12-19T08:31:59.853Z,1.20
2022-12-19T08:32:59.832Z,1.20
2022-12-19T08:33:59.830Z,1.22
2022-12-19T08:34:59.958Z,1.23
2022-12-19T08:35:59.943Z,1.22
2022-12-19T08:36:59.782Z,1.23
2022-12-19T08:37:59.804Z,1.24
2022-12-19T08:38:59.803Z,1.27
2022-12-19T08:39:59.785Z,1.32
2022-12-19T08:40:59.745Z,1.30
2022-12-19T08:41:59.751Z,1.32
2022-12-19T08:42:59.732Z,1.32
2022-12-19T08:43:59.732Z,1.32
2022-12-19T08:44:59.727Z,1.34
2022-12-19T08:45:59.773Z,1.36
2022-12-19T08:46:59.704Z,1.37
2022-12-19T08:48:00.648Z,1.37
2022-12-19T08:48:59.667Z,1.40
2022-12-19T08:49:59.676Z,1.42
2022-12-19T08:50:59.645Z,1.44
2022-12-19T08:51:59.644Z,1.45
2022-12-19T08:52:59.617Z,1.47
2022-12-19T08:53:59.631Z,1.47
2022-12-19T08:54:59.609Z,1.47
2022-12-19T08:55:59.611Z,1.50
2022-12-19T08:56:59.609Z,1.48
2022-12-19T08:57:59.592Z,1.48
2022-12-19T08:58:59.610Z,1.50
2022-12-19T08:59:59.633Z,1.52
2022-12-19T09:01:05.205Z,1.59
2022-12-19T09:02:01.093Z,1.62
2022-12-19T09:02:59.829Z,1.62
2022-12-19T09:04:39.617Z,1.62
2022-12-19T09:05:59.736Z,1.60
2022-12-19T09:06:07.920Z,1.60
2022-12-19T09:07:00.477Z,1.63
2022-12-19T09:07:59.493Z,1.65
2022-12-19T09:09:00.178Z,1.72
2022-12-19T09:09:59.458Z,1.76
2022-12-19T09:10:59.430Z,1.73
2022-12-19T09:11:59.444Z,1.79
2022-12-19T09:12:59.520Z,1.81
2022-12-19T09:13:59.437Z,1.84
2022-12-19T09:14:59.401Z,1.88
2022-12-19T09:15:59.405Z,1.91
2022-12-19T09:16:59.678Z,1.93
2022-12-19T09:17:59.751Z,1.87
2022-12-19T09:18:59.358Z,1.84
2022-12-19T09:19:59.351Z,1.79
2022-12-19T09:20:59.373Z,1.77
2022-12-19T09:22:00.133Z,1.81
2022-12-19T09:22:59.311Z,1.84
2022-12-19T09:24:05.220Z,1.86
2022-12-19T09:25:00.301Z,1.87
2022-12-19T09:25:59.303Z,1.88
2022-12-19T09:26:59.284Z,1.91
2022-12-19T09:28:26.889Z,1.91
2022-12-19T09:29:00.265Z,1.90
2022-12-19T09:29:59.236Z,1.88
2022-12-19T09:30:59.270Z,1.86
2022-12-19T09:31:59.286Z,1.84
2022-12-19T09:32:59.212Z,1.80
2022-12-19T09:33:59.219Z,1.81
2022-12-19T09:34:59.972Z,1.84
2022-12-19T09:35:59.176Z,1.90
2022-12-19T09:36:59.168Z,1.90
2022-12-19T09:38:00.537Z,1.93
2022-12-19T09:38:59.159Z,1.95
2022-12-19T09:39:59.432Z,1.99
2022-12-19T09:40:59.127Z,1.98
2022-12-19T09:41:59.123Z,1.95
2022-12-19T09:42:59.109Z,1.98
2022-12-19T09:43:59.312Z,1.99
2022-12-19T09:44:59.093Z,2.00
2022-12-19T09:45:59.134Z,2.02
2022-12-19T09:46:59.069Z,2.03
2022-12-19T09:47:59.107Z,2.05
2022-12-19T09:48:59.241Z,2.09
2022-12-19T09:49:59.038Z,2.09
2022-12-19T09:51:10.174Z,2.10
2022-12-19T09:52:00.025Z,2.09
2022-12-19T09:52:59.020Z,2.14
2022-12-19T09:53:58.990Z,2.16
2022-12-19T09:54:58.979Z,2.17
2022-12-19T09:55:58.993Z,2.23
2022-12-19T09:56:58.970Z,2.28
2022-12-19T09:57:58.964Z,2.35
2022-12-19T09:58:58.937Z,2.41
2022-12-19T09:59:58.937Z,2.46
2022-12-19T10:01:00.075Z,2.43
2022-12-19T10:01:59.931Z,2.46
2022-12-19T10:02:59.087Z,2.49
2022-12-19T10:03:58.928Z,2.54
2022-12-19T10:05:06.550Z,2.53
2022-12-19T10:07:10.428Z,2.53
2022-12-19T10:07:22.357Z,2.57
2022-12-19T10:08:10.525Z,2.61
2022-12-19T10:11:18.131Z,2.67
2022-12-19T10:12:35.689Z,2.72
2022-12-19T10:12:45.620Z,2.75
2022-12-19T10:12:47.551Z,2.75
2022-12-19T10:13:01.705Z,2.78
2022-12-19T10:13:59.783Z,2.78
2022-12-19T10:14:58.769Z,2.81
2022-12-19T10:16:00.256Z,2.82
2022-12-19T10:17:23.105Z,2.84
2022-12-19T10:17:59.761Z,2.82
2022-12-19T10:18:58.745Z,2.81
2022-12-19T10:19:58.733Z,2.79
2022-12-19T10:20:58.705Z,2.78
2022-12-19T10:22:17.869Z,2.79
2022-12-19T10:22:59.693Z,2.84
2022-12-19T10:23:58.689Z,2.84
2022-12-19T10:25:09.541Z,2.89
2022-12-19T10:25:59.697Z,2.92
2022-12-19T10:26:58.667Z,2.93
2022-12-19T10:28:00.466Z,2.95
2022-12-19T10:28:59.437Z,2.96
2022-12-19T10:29:58.636Z,2.99
2022-12-19T10:31:01.513Z,3.10
2022-12-19T10:31:59.819Z,3.20
2022-12-19T10:32:58.666Z,3.47
2022-12-19T10:33:58.871Z,3.73
2022-12-19T10:34:58.560Z,3.94
2022-12-19T10:36:02.109Z,4.14
2022-12-19T10:37:19.766Z,4.41
2022-12-19T10:38:00.052Z,4.52
2022-12-19T10:38:58.561Z,4.67
2022-12-19T10:39:58.532Z,4.80
2022-12-19T10:40:58.531Z,4.89
2022-12-19T10:41:59.340Z,4.97
2022-12-19T10:42:58.480Z,4.97
2022-12-19T10:43:58.516Z,5.06
2022-12-19T10:44:58.476Z,5.09
2022-12-19T10:45:58.507Z,5.22
2022-12-19T10:46:58.521Z,5.36
2022-12-19T10:47:58.466Z,5.54
2022-12-19T10:48:58.422Z,5.76
2022-12-19T10:50:02.521Z,6.01
2022-12-19T10:51:00.645Z,6.21
2022-12-19T10:51:59.399Z,6.52
2022-12-19T10:52:58.361Z,6.70
2022-12-19T10:53:58.408Z,6.64
2022-12-19T10:54:59.173Z,6.80
2022-12-19T10:55:58.350Z,6.88
2022-12-19T10:56:58.339Z,7.02
2022-12-19T10:57:58.446Z,7.09
2022-12-19T10:58:58.324Z,7.03
2022-12-19T10:59:58.348Z,6.73
2022-12-19T11:00:58.293Z,6.52
2022-12-19T11:02:01.232Z,6.33
2022-12-19T11:02:58.475Z,6.03
2022-12-19T11:03:58.372Z,5.96
2022-12-19T11:04:58.318Z,5.89
2022-12-19T11:05:58.840Z,5.89
2022-12-19T11:06:58.227Z,5.90
2022-12-19T11:07:58.227Z,5.94
2022-12-19T11:08:58.242Z,6.01
2022-12-19T11:10:29.820Z,6.30
2022-12-19T11:13:03.125Z,6.62
2022-12-19T11:15:17.090Z,6.88
2022-12-19T11:17:14.378Z,6.98
2022-12-19T11:17:50.221Z,6.99
2022-12-19T11:20:39.304Z,6.62
2022-12-19T11:20:52.220Z,6.77
2022-12-19T11:24:23.766Z,6.58
2022-12-19T11:26:16.972Z,6.17
2022-12-19T11:28:40.393Z,6.49
2022-12-19T11:29:18.284Z,6.12
2022-12-19T11:29:26.986Z,6.25
2022-12-19T11:29:31.261Z,6.30
2022-12-19T11:29:45.131Z,6.15
2022-12-19T11:30:35.456Z,6.14
2022-12-19T11:30:36.953Z,5.99
2022-12-19T11:30:43.549Z,6.11
2022-12-19T11:30:46.251Z,6.09
2022-12-19T11:30:46.431Z,6.28
2022-12-19T11:30:47.268Z,6.27
2022-12-19T11:32:14.242Z,6.56
2022-12-19T11:32:59.023Z,6.49
2022-12-19T11:33:58.727Z,6.37
2022-12-19T11:34:57.922Z,6.28
2022-12-19T11:35:57.922Z,6.18
2022-12-19T11:36:58.711Z,6.22
2022-12-19T11:37:58.555Z,6.27
2022-12-19T11:38:57.928Z,6.18
2022-12-19T11:39:57.885Z,6.19
2022-12-19T11:40:58.677Z,6.18
2022-12-19T11:41:57.862Z,6.17
2022-12-19T11:43:41.502Z,6.17
2022-12-19T11:43:58.952Z,6.14
2022-12-19T11:44:57.884Z,6.00
2022-12-19T11:45:58.613Z,5.99
2022-12-19T11:46:58.614Z,5.96
2022-12-19T11:47:57.785Z,5.91
2022-12-19T11:48:57.778Z,5.74
2022-12-19T11:49:58.577Z,5.75
2022-12-19T11:50:57.784Z,5.68
2022-12-19T11:51:57.754Z,5.67
2022-12-19T11:53:09.383Z,5.54
2022-12-19T11:53:58.729Z,5.54
2022-12-19T11:54:57.727Z,5.61
2022-12-19T11:55:57.747Z,5.68
2022-12-19T11:56:57.848Z,5.74
2022-12-19T11:57:57.696Z,5.79
2022-12-19T11:58:57.672Z,5.76
2022-12-19T12:00:04.491Z,5.68
2022-12-19T12:00:58.752Z,5.61
2022-12-19T12:01:57.709Z,5.48
2022-12-19T12:02:57.672Z,5.45
2022-12-19T12:04:01.943Z,5.42
2022-12-19T12:04:58.650Z,5.46
2022-12-19T12:05:57.619Z,5.45
2022-12-19T12:06:57.691Z,5.51
2022-12-19T12:08:58.519Z,5.53
2022-12-19T12:11:58.582Z,5.51
2022-12-19T12:12:05.016Z,5.53
2022-12-19T12:14:54.673Z,5.49
2022-12-19T12:21:17.172Z,5.85
2022-12-19T12:22:55.063Z,5.60
2022-12-19T12:23:57.216Z,5.78
2022-12-19T12:25:53.664Z,5.90
2022-12-19T12:27:43.686Z,5.96
2022-12-19T12:28:47.967Z,5.81
2022-12-19T12:29:34.045Z,5.68
2022-12-19T12:29:35.381Z,5.96
2022-12-19T12:31:07.036Z,5.68
2022-12-19T12:31:15.836Z,5.71
2022-12-19T12:31:28.209Z,5.63
2022-12-19T12:31:44.390Z,5.82
2022-12-19T12:31:47.724Z,6.22
2022-12-19T12:31:49.892Z,6.33
2022-12-19T12:31:50.266Z,6.37
2022-12-19T12:31:50.267Z,6.06
2022-12-19T12:31:53.469Z,5.96
2022-12-19T12:31:54.266Z,6.31
2022-12-19T12:32:02.060Z,5.71
2022-12-19T12:32:05.066Z,5.68
2022-12-19T12:35:21.480Z,6.48
2022-12-19T12:35:30.228Z,6.43
2022-12-19T12:35:40.780Z,6.80
2022-12-19T12:35:48.780Z,6.66
2022-12-19T12:38:59.724Z,7.16
2022-12-19T12:39:57.229Z,7.10
2022-12-19T12:40:57.242Z,6.84
2022-12-19T12:41:57.199Z,6.79
2022-12-19T12:42:57.210Z,6.61
2022-12-19T12:43:57.183Z,6.58
2022-12-19T12:44:57.184Z,6.56
2022-12-19T12:45:57.238Z,6.56
2022-12-19T12:46:57.194Z,6.48
2022-12-19T12:47:57.160Z,6.44
2022-12-19T12:48:57.147Z,6.41
2022-12-19T12:49:57.120Z,6.40
2022-12-19T12:50:57.124Z,6.43
2022-12-19T12:51:57.105Z,6.46
2022-12-19T12:52:57.107Z,6.46
2022-12-19T12:53:57.081Z,6.41
2022-12-19T12:54:57.087Z,6.41
2022-12-19T12:55:57.073Z,6.38
2022-12-19T12:56:57.053Z,6.40
2022-12-19T12:57:57.036Z,6.44
2022-12-19T12:58:57.855Z,6.48
2022-12-19T12:59:57.103Z,6.48
2022-12-19T13:00:57.093Z,6.48
2022-12-19T13:01:57.247Z,6.48
2022-12-19T13:02:57.246Z,6.51
2022-12-19T13:03:56.977Z,6.56
2022-12-19T13:04:56.975Z,6.66
2022-12-19T13:05:57.036Z,6.73
2022-12-19T13:06:57.047Z,6.77
2022-12-19T13:07:56.931Z,6.81
2022-12-19T13:08:57.801Z,6.87
2022-12-19T13:09:56.947Z,6.88
2022-12-19T13:10:56.945Z,6.80
2022-12-19T13:11:57.408Z,6.77
2022-12-19T13:12:56.899Z,6.76
2022-12-19T13:13:57.831Z,6.71
2022-12-19T13:14:56.868Z,6.67
2022-12-19T13:15:56.852Z,6.70
2022-12-19T13:16:57.698Z,6.74
2022-12-19T13:17:56.840Z,6.71
2022-12-19T13:18:56.827Z,6.66